Time;durP1;ratioP1;P1;durP2;ratioP2;P2;SDS_P1;SDS_P2;PMS_P1;PMS_P2;Temp;Humidity;BMP_temperature;BMP_pressure;BME280_temperature;BME280_humidity;BME280_pressure;Samples;Min_cycle;Max_cycle;Signal;HPM_P1;HPM_P2
2022/03/06 00:02:05;;;;;;;59.75;33.22;;;;;;;1.57;69.92;102240.72;4973699;28;20030;-68
2022/03/06 00:04:31;;;;;;;58.28;32.63;;;;;;;1.52;69.81;102237.34;4993902;28;20036;-68
2022/03/06 00:06:57;;;;;;;58.13;32.28;;;;;;;1.50;70.08;102244.28;5011413;28;20041;-69
2022/03/06 00:09:23;;;;;;;62.08;34.55;;;;;;;1.48;69.83;102246.03;5010797;28;20087;-68
2022/03/06 00:11:48;;;;;;;53.70;30.30;;;;;;;1.47;70.22;102252.09;5009997;28;20037;-68
2022/03/06 00:14:13;;;;;;;54.60;30.15;;;;;;;1.44;70.47;102246.97;5009008;28;20030;-68
2022/03/06 00:16:39;;;;;;;57.90;30.73;;;;;;;1.42;70.19;102240.94;5008973;28;20084;-68
2022/03/06 00:19:04;;;;;;;54.42;30.83;;;;;;;1.37;69.94;102241.00;5011149;28;20034;-67
2022/03/06 00:21:30;;;;;;;56.28;32.28;;;;;;;1.33;70.80;102246.25;5010762;28;20018;-67
2022/03/06 00:23:55;;;;;;;58.03;34.00;;;;;;;1.33;70.35;102243.66;5010555;28;20025;-67
2022/03/06 00:26:21;;;;;;;55.35;32.00;;;;;;;1.31;69.93;102242.84;5011235;28;20422;-68
2022/03/06 00:28:46;;;;;;;56.50;34.15;;;;;;;1.30;70.72;102251.50;5009106;28;20033;-68
2022/03/06 00:31:12;;;;;;;54.53;31.48;;;;;;;1.25;70.46;102257.59;5010886;28;20049;-68
2022/03/06 00:33:37;;;;;;;57.20;31.38;;;;;;;1.24;69.82;102242.91;5010175;28;20030;-70
2022/03/06 00:36:03;;;;;;;60.35;32.85;;;;;;;1.24;70.55;102258.47;5009310;28;20054;-69
2022/03/06 00:38:28;;;;;;;50.95;28.85;;;;;;;1.22;70.60;102257.63;4994149;28;20048;-69
2022/03/06 00:40:53;;;;;;;50.78;29.50;;;;;;;1.19;70.70;102251.59;5010234;28;20041;-69
2022/03/06 00:43:19;;;;;;;56.40;32.25;;;;;;;1.17;70.39;102262.00;5010869;28;20116;-68
2022/03/06 00:45:44;;;;;;;54.67;30.50;;;;;;;1.17;70.22;102261.13;5010649;28;20026;-68
2022/03/06 00:48:10;;;;;;;54.47;30.80;;;;;;;1.14;70.26;102267.22;5008319;28;20026;-68
2022/03/06 00:50:39;;;;;;;47.05;29.23;;;;;;;1.16;70.25;102275.81;5010273;28;20076;-67
2022/03/06 00:53:05;;;;;;;48.33;27.55;;;;;;;1.16;70.04;102281.00;5010596;28;20029;-68
2022/03/06 00:55:31;;;;;;;44.97;27.30;;;;;;;1.14;70.12;102284.50;5010829;28;20033;-68
2022/03/06 00:57:57;;;;;;;49.00;28.33;;;;;;;1.13;69.98;102280.19;5009542;28;20038;-68
2022/03/06 01:00:22;;;;;;;47.15;27.92;;;;;;;1.10;69.81;102278.50;5010621;28;20026;-67
2022/03/06 01:02:48;;;;;;;47.10;28.73;;;;;;;1.09;70.19;102281.97;5010358;28;20474;-70
2022/03/06 01:05:14;;;;;;;48.22;28.85;;;;;;;1.05;70.18;102274.25;5007219;28;20021;-70
2022/03/06 01:07:39;;;;;;;49.38;27.67;;;;;;;1.02;69.64;102282.91;4992097;28;20118;-70
2022/03/06 01:10:06;;;;;;;48.00;28.00;;;;;;;1.01;69.90;102281.19;4990710;28;20034;-70
2022/03/06 01:12:31;;;;;;;49.50;27.98;;;;;;;0.96;70.17;102280.41;4990317;28;20029;-69
2022/03/06 01:14:56;;;;;;;49.10;28.52;;;;;;;0.93;70.53;102278.69;4990341;28;20030;-69
2022/03/06 01:17:22;;;;;;;47.97;28.00;;;;;;;0.91;70.44;102285.63;4991096;28;20049;-69
2022/03/06 01:19:49;;;;;;;49.50;28.55;;;;;;;0.87;70.61;102294.31;4989591;28;20030;-69
2022/03/06 01:22:15;;;;;;;49.22;28.98;;;;;;;0.84;70.72;102289.16;4990607;28;20458;-69
2022/03/06 01:24:40;;;;;;;49.83;29.38;;;;;;;0.80;70.66;102287.50;5006408;28;20030;-69
2022/03/06 01:27:05;;;;;;;51.38;28.65;;;;;;;0.78;70.94;102288.34;5009505;28;20037;-69
2022/03/06 01:29:31;;;;;;;48.72;28.52;;;;;;;0.77;70.40;102291.81;5010674;28;20022;-69
2022/03/06 01:31:56;;;;;;;51.72;28.77;;;;;;;0.75;70.97;102288.38;5009985;28;20112;-69
2022/03/06 01:34:22;;;;;;;51.05;29.10;;;;;;;0.72;70.75;102291.88;5010836;28;20109;-69
2022/03/06 01:36:47;;;;;;;48.13;27.63;;;;;;;0.73;70.63;102301.34;5003399;28;20069;-69
2022/03/06 01:39:12;;;;;;;48.17;28.02;;;;;;;0.72;70.61;102298.78;4990140;28;20095;-68
2022/03/06 01:41:38;;;;;;;46.33;27.42;;;;;;;0.71;71.08;102297.06;4994401;28;20014;-68
2022/03/06 01:44:04;;;;;;;50.60;28.88;;;;;;;0.72;70.89;102303.97;5010375;28;20061;-68
2022/03/06 01:46:29;;;;;;;50.80;28.63;;;;;;;0.70;70.68;102303.13;5010122;28;20021;-68
2022/03/06 01:48:55;;;;;;;45.22;27.85;;;;;;;0.69;70.79;102306.56;5009759;28;20140;-68
2022/03/06 01:51:21;;;;;;;49.30;28.65;;;;;;;0.68;70.89;102302.28;5010378;28;20386;-68
2022/03/06 01:53:46;;;;;;;47.33;27.88;;;;;;;0.68;70.52;102307.44;5009180;28;20032;-68
2022/03/06 01:56:13;;;;;;;49.80;27.80;;;;;;;0.66;70.66;102304.03;5010223;28;20156;-68
2022/03/06 01:58:39;;;;;;;51.03;29.13;;;;;;;0.65;70.84;102312.66;5007335;28;20025;-68
2022/03/06 02:01:04;;;;;;;48.55;27.50;;;;;;;0.63;71.13;102308.34;5009069;28;20017;-68
2022/03/06 02:03:30;;;;;;;48.42;28.00;;;;;;;0.60;71.07;102303.22;5009811;28;20025;-68
2022/03/06 02:05:55;;;;;;;53.83;29.23;;;;;;;0.59;71.31;102309.25;5007182;28;20033;-68
2022/03/06 02:08:21;;;;;;;50.92;28.35;;;;;;;0.59;71.14;102303.22;4989457;28;20026;-68
2022/03/06 02:10:50;;;;;;;48.95;27.63;;;;;;;0.57;71.25;102311.00;4989568;28;20096;-68
2022/03/06 02:13:16;;;;;;;48.30;28.10;;;;;;;0.55;71.07;102314.47;4988403;28;20045;-68
2022/03/06 02:15:44;;;;;;;46.65;28.00;;;;;;;0.55;71.36;102312.75;4989427;28;20108;-68
2022/03/06 02:18:09;;;;;;;50.25;29.00;;;;;;;0.51;71.85;102305.88;5005648;28;20394;-69
2022/03/06 02:20:37;;;;;;;48.67;27.33;;;;;;;0.51;71.69;102311.06;5008051;28;20026;-68
2022/03/06 02:23:02;;;;;;;50.17;28.08;;;;;;;0.49;71.28;102310.22;5008777;28;20394;-68
2022/03/06 02:25:31;;;;;;;48.05;28.35;;;;;;;0.47;72.13;102314.56;5009478;28;20026;-68
2022/03/06 02:27:58;;;;;;;48.42;27.80;;;;;;;0.44;71.63;102308.56;5009098;28;20032;-68
2022/03/06 02:30:26;;;;;;;46.33;27.55;;;;;;;0.44;71.39;102313.72;5009092;28;20037;-69
2022/03/06 02:32:53;;;;;;;48.35;28.25;;;;;;;0.41;71.98;102314.63;5008104;28;20112;-68
2022/03/06 02:35:20;;;;;;;47.63;28.40;;;;;;;0.39;72.11;102318.06;5008934;28;20042;-69
2022/03/06 02:37:46;;;;;;;45.88;27.48;;;;;;;0.38;71.80;102316.34;5007999;28;20033;-68
2022/03/06 02:40:13;;;;;;;46.67;27.55;;;;;;;0.31;72.15;102313.81;5009686;28;20033;-67
2022/03/06 02:42:42;;;;;;;46.95;27.60;;;;;;;0.31;72.55;102321.56;5009148;28;20022;-70
2022/03/06 02:45:12;;;;;;;44.58;26.77;;;;;;;0.28;72.57;102328.50;5009531;28;20030;-68
2022/03/06 02:47:38;;;;;;;47.22;27.98;;;;;;;0.26;72.41;102331.09;5009660;28;20029;-67
2022/03/06 02:50:05;;;;;;;44.47;26.00;;;;;;;0.24;72.71;102326.81;5006909;28;20030;-69
2022/03/06 02:52:31;;;;;;;43.13;27.02;;;;;;;0.23;73.18;102325.94;5008684;28;20084;-70
2022/03/06 02:54:56;;;;;;;46.53;28.08;;;;;;;0.21;72.79;102321.66;5009370;28;20026;-69
2022/03/06 02:57:21;;;;;;;44.92;26.25;;;;;;;0.21;73.08;102324.25;5008655;28;20060;-67
2022/03/06 02:59:47;;;;;;;46.03;26.48;;;;;;;0.19;72.69;102321.66;5008808;28;20401;-69
2022/03/06 03:02:12;;;;;;;42.72;25.50;;;;;;;0.18;73.34;102321.69;5004824;28;20022;-67
2022/03/06 03:04:38;;;;;;;45.80;25.92;;;;;;;0.18;72.86;102332.03;5006320;28;20394;-67
2022/03/06 03:07:06;;;;;;;44.50;26.38;;;;;;;0.16;73.35;102328.59;5004569;28;20038;-67
2022/03/06 03:09:33;;;;;;;45.00;25.67;;;;;;;0.16;73.32;102336.38;5012194;28;20022;-68
2022/03/06 03:11:58;;;;;;;46.00;26.50;;;;;;;0.15;73.59;102338.09;5011304;28;20018;-68
2022/03/06 03:14:24;;;;;;;43.72;26.20;;;;;;;0.13;73.71;102332.06;5012379;28;20390;-68
2022/03/06 03:16:50;;;;;;;42.53;25.40;;;;;;;0.12;74.11;102339.84;5012608;28;20367;-68
2022/03/06 03:19:17;;;;;;;45.70;26.88;;;;;;;0.10;74.10;102334.69;5011551;28;20398;-68
2022/03/06 03:21:42;;;;;;;44.22;26.75;;;;;;;0.08;73.88;102338.16;5011713;28;20050;-68
2022/03/06 03:24:08;;;;;;;44.55;26.25;;;;;;;0.07;74.10;102339.03;5010063;28;20111;-68
2022/03/06 03:26:33;;;;;;;44.38;25.67;;;;;;;0.04;73.92;102331.28;5010585;28;20025;-69
2022/03/06 03:28:59;;;;;;;44.15;26.08;;;;;;;0.01;74.09;102333.88;5012409;28;20022;-68
2022/03/06 03:31:24;;;;;;;44.08;26.20;;;;;;;-0.04;73.78;102332.16;5012478;28;20030;-68
2022/03/06 03:33:49;;;;;;;44.67;25.67;;;;;;;-0.06;73.90;102328.72;5012271;28;20384;-68
2022/03/06 03:36:15;;;;;;;48.80;25.48;;;;;;;-0.07;74.30;102332.19;5012259;28;20395;-68
2022/03/06 03:38:40;;;;;;;43.97;25.48;;;;;;;-0.12;74.51;102339.13;5011772;28;20056;-68
2022/03/06 03:41:06;;;;;;;48.13;28.05;;;;;;;-0.11;74.37;102337.38;5010864;28;20129;-68
2022/03/06 03:43:32;;;;;;;42.08;25.42;;;;;;;-0.13;74.73;102341.72;5012890;28;20102;-68
2022/03/06 03:46:00;;;;;;;48.55;26.52;;;;;;;-0.16;74.84;102337.41;5011673;28;20030;-68
2022/03/06 03:48:27;;;;;;;43.45;26.27;;;;;;;-0.17;74.72;102340.88;5012631;28;20040;-68
2022/03/06 03:50:53;;;;;;;41.17;25.80;;;;;;;-0.19;75.14;102336.59;5012358;28;20022;-68
2022/03/06 03:53:19;;;;;;;44.60;26.30;;;;;;;-0.22;74.56;102342.63;5011544;28;20117;-68
2022/03/06 03:55:45;;;;;;;43.97;25.73;;;;;;;-0.22;75.36;102341.78;5011997;28;20079;-68
2022/03/06 03:58:10;;;;;;;43.35;25.48;;;;;;;-0.24;75.12;102348.69;5009889;28;20030;-68
2022/03/06 04:00:35;;;;;;;41.88;24.90;;;;;;;-0.25;75.80;102357.31;5011233;28;20018;-68
2022/03/06 04:03:01;;;;;;;44.25;25.58;;;;;;;-0.31;75.37;102340.09;5000494;28;20084;-67
2022/03/06 04:05:26;;;;;;;44.63;26.17;;;;;;;-0.30;75.38;102354.75;4992040;28;20072;-68
2022/03/06 04:07:51;;;;;;;44.35;25.67;;;;;;;-0.34;75.49;102348.72;4991531;28;20026;-68
2022/03/06 04:10:17;;;;;;;44.70;26.00;;;;;;;-0.33;75.55;102355.63;4991790;28;20050;-69
2022/03/06 04:12:42;;;;;;;44.47;27.13;;;;;;;-0.34;75.63;102363.38;4991855;28;20026;-69
2022/03/06 04:15:08;;;;;;;46.60;26.05;;;;;;;-0.38;75.88;102359.97;5003849;28;20030;-68
2022/03/06 04:17:33;;;;;;;41.97;25.38;;;;;;;-0.40;75.81;102368.56;5011595;28;20022;-70
2022/03/06 04:19:58;;;;;;;41.92;25.52;;;;;;;-0.43;75.78;102363.41;5010065;28;20036;-69
2022/03/06 04:22:24;;;;;;;42.47;26.35;;;;;;;-0.44;75.86;102361.69;5010495;28;20021;-69
2022/03/06 04:24:49;;;;;;;43.33;26.08;;;;;;;-0.46;75.92;102373.75;5011821;28;20121;-69
2022/03/06 04:27:14;;;;;;;42.08;24.98;;;;;;;-0.48;76.22;102375.50;5011679;28;20418;-69
2022/03/06 04:29:40;;;;;;;39.40;25.20;;;;;;;-0.49;76.24;102379.81;5011413;28;20425;-69
2022/03/06 04:32:06;;;;;;;43.10;24.75;;;;;;;-0.51;76.28;102378.09;5003994;28;20028;-70
2022/03/06 04:34:31;;;;;;;41.95;25.30;;;;;;;-0.56;76.59;102377.25;4992341;28;20042;-69
2022/03/06 04:36:56;;;;;;;41.28;25.38;;;;;;;-0.54;76.42;102375.50;4989856;28;20560;-70
2022/03/06 04:39:22;;;;;;;41.78;25.88;;;;;;;-0.56;76.24;102387.59;4992089;28;20030;-69
2022/03/06 04:41:47;;;;;;;42.92;25.75;;;;;;;-0.57;76.29;102385.88;4991237;28;20033;-70
2022/03/06 04:44:13;;;;;;;44.28;26.10;;;;;;;-0.61;76.46;102385.03;4991984;28;20022;-70
2022/03/06 04:46:39;;;;;;;40.35;25.15;;;;;;;-0.63;76.82;102387.63;4991332;28;20061;-70
2022/03/06 04:49:05;;;;;;;41.53;25.02;;;;;;;-0.64;76.81;102397.97;4998116;28;20021;-69
2022/03/06 04:51:30;;;;;;;41.25;26.27;;;;;;;-0.64;76.39;102392.78;5010680;28;20130;-70
2022/03/06 04:53:55;;;;;;;42.50;25.65;;;;;;;-0.67;76.59;102391.06;5010466;28;20030;-69
2022/03/06 04:56:21;;;;;;;37.50;24.92;;;;;;;-0.66;76.62;102399.69;5009928;28;20029;-69
2022/03/06 04:58:46;;;;;;;38.97;24.15;;;;;;;-0.69;76.74;102403.13;5009270;28;20037;-69
2022/03/06 05:01:12;;;;;;;38.25;25.02;;;;;;;-0.70;77.05;102405.72;5003544;28;20145;-69
2022/03/06 05:03:37;;;;;;;40.47;25.58;;;;;;;-0.72;76.49;102410.91;4995300;28;20041;-69
2022/03/06 05:06:03;;;;;;;40.17;25.45;;;;;;;-0.73;77.07;102416.06;5004909;28;20048;-69
2022/03/06 05:08:28;;;;;;;41.58;24.83;;;;;;;-0.72;76.79;102423.81;4998693;28;20109;-69
2022/03/06 05:10:55;;;;;;;40.83;24.80;;;;;;;-0.76;76.69;102411.78;4997104;28;20479;-69
2022/03/06 05:13:24;;;;;;;40.55;25.30;;;;;;;-0.77;77.16;102419.53;4990673;28;20028;-70
2022/03/06 05:15:50;;;;;;;38.47;24.13;;;;;;;-0.78;76.82;102418.66;4990413;28;20034;-70
2022/03/06 05:18:16;;;;;;;39.85;24.83;;;;;;;-0.80;77.01;102419.50;4996972;28;20034;-70
2022/03/06 05:20:42;;;;;;;38.53;24.88;;;;;;;-0.80;77.00;102417.81;4990261;28;20025;-69
2022/03/06 05:23:07;;;;;;;40.53;24.85;;;;;;;-0.82;77.04;102422.09;4990161;28;20031;-69
2022/03/06 05:25:32;;;;;;;35.65;24.75;;;;;;;-0.85;77.58;102424.69;4994420;28;20030;-69
2022/03/06 05:27:57;;;;;;;37.72;24.85;;;;;;;-0.83;77.51;102420.38;4990006;28;20038;-69
2022/03/06 05:30:23;;;;;;;38.80;25.20;;;;;;;-0.85;77.38;102432.44;4990458;28;20022;-70
2022/03/06 05:32:49;;;;;;;37.70;24.02;;;;;;;-0.85;76.94;102426.41;4990261;28;20088;-69
2022/03/06 05:35:15;;;;;;;38.33;23.98;;;;;;;-0.87;77.11;102429.00;4990456;28;20502;-70
2022/03/06 05:37:40;;;;;;;37.72;24.60;;;;;;;-0.89;77.12;102435.88;4990239;28;20018;-69
2022/03/06 05:40:07;;;;;;;39.55;25.48;;;;;;;-0.90;77.40;102441.91;4990154;28;20030;-69
2022/03/06 05:42:32;;;;;;;42.63;24.88;;;;;;;-0.93;77.31;102439.34;4999077;28;20368;-69
2022/03/06 05:44:57;;;;;;;44.00;25.75;;;;;;;-0.93;77.44;102436.75;4988931;28;20067;-69
2022/03/06 05:47:23;;;;;;;38.80;24.40;;;;;;;-0.93;77.29;102444.50;4989686;28;20065;-69
2022/03/06 05:49:48;;;;;;;37.08;24.83;;;;;;;-0.94;77.26;102447.94;4994225;28;20033;-69
2022/03/06 05:52:14;;;;;;;37.65;25.92;;;;;;;-0.95;77.24;102446.22;5000036;28;20089;-69
2022/03/06 05:54:39;;;;;;;38.58;25.02;;;;;;;-0.95;77.57;102454.84;4990231;28;20041;-69
2022/03/06 05:57:05;;;;;;;38.75;25.13;;;;;;;-0.96;77.58;102454.84;4994897;28;20674;-69
2022/03/06 05:59:30;;;;;;;35.78;25.15;;;;;;;-0.98;77.65;102451.41;4997058;28;20442;-69
2022/03/06 06:01:56;;;;;;;37.95;23.90;;;;;;;-0.98;77.71;102461.72;4989768;28;20646;-69
2022/03/06 06:04:21;;;;;;;38.83;24.60;;;;;;;-0.99;77.48;102460.88;4997518;28;20092;-69
2022/03/06 06:06:46;;;;;;;36.88;25.38;;;;;;;-1.00;77.36;102460.88;4989199;28;20129;-69
2022/03/06 06:09:11;;;;;;;35.20;24.40;;;;;;;-1.02;77.42;102465.19;4989686;28;20068;-69
2022/03/06 06:11:37;;;;;;;39.20;25.65;;;;;;;-1.02;77.30;102471.22;4989599;28;20034;-69
2022/03/06 06:14:03;;;;;;;38.15;25.60;;;;;;;-1.02;77.53;102470.34;4989590;28;20026;-69
2022/03/06 06:16:29;;;;;;;37.13;25.13;;;;;;;-1.06;77.62;102464.31;5007534;28;20036;-69
2022/03/06 06:18:55;;;;;;;37.03;24.33;;;;;;;-1.08;78.05;102471.22;4989716;28;20402;-69
2022/03/06 06:21:20;;;;;;;35.67;24.35;;;;;;;-1.07;77.51;102472.94;4989308;28;20018;-69
2022/03/06 06:23:46;;;;;;;36.95;25.10;;;;;;;-1.06;77.53;102476.38;4989559;28;20030;-69
2022/03/06 06:26:12;;;;;;;40.28;25.58;;;;;;;-1.06;77.43;102482.41;4989807;28;20113;-69
2022/03/06 06:28:37;;;;;;;38.47;25.52;;;;;;;-1.07;77.67;102485.84;4988520;28;20106;-69
2022/03/06 06:31:04;;;;;;;36.20;24.95;;;;;;;-1.07;77.74;102485.84;4989913;28;20029;-69
2022/03/06 06:33:29;;;;;;;35.85;24.45;;;;;;;-1.08;77.70;102478.97;4995575;28;20398;-68
2022/03/06 06:35:55;;;;;;;38.65;25.20;;;;;;;-1.07;77.89;102487.56;4989451;28;20125;-67
2022/03/06 06:38:21;;;;;;;36.75;24.85;;;;;;;-1.08;77.86;102496.19;4990321;28;20418;-67
2022/03/06 06:40:47;;;;;;;35.42;25.25;;;;;;;-1.08;77.87;102497.03;4989922;28;20029;-67
2022/03/06 06:43:13;;;;;;;38.17;25.52;;;;;;;-1.09;78.33;102491.88;4990536;28;20443;-67
2022/03/06 06:45:38;;;;;;;38.72;24.95;;;;;;;-1.08;77.97;102493.59;4993602;28;20060;-67
2022/03/06 06:48:04;;;;;;;36.13;25.08;;;;;;;-1.08;78.11;102497.03;4993701;28;20402;-67
2022/03/06 06:50:29;;;;;;;39.08;25.08;;;;;;;-1.08;78.11;102498.75;4999963;28;20101;-69
2022/03/06 06:52:54;;;;;;;37.20;24.95;;;;;;;-1.08;77.77;102501.34;4997813;28;20052;-70
2022/03/06 06:55:19;;;;;;;38.90;26.13;;;;;;;-1.07;77.61;102505.66;4993801;28;20038;-67
2022/03/06 06:57:45;;;;;;;37.35;25.40;;;;;;;-1.06;77.84;102518.56;4999779;28;20077;-68
2022/03/06 07:00:11;;;;;;;35.88;25.23;;;;;;;-1.05;77.83;102506.50;4999698;28;20133;-67
2022/03/06 07:02:39;;;;;;;39.22;25.85;;;;;;;-1.06;77.83;102523.72;4992159;28;20465;-67
2022/03/06 07:05:05;;;;;;;40.00;25.77;;;;;;;-1.07;77.94;102519.44;4992889;28;20114;-68
2022/03/06 07:07:30;;;;;;;39.38;25.35;;;;;;;-1.05;77.70;102522.00;5006442;28;20465;-67
2022/03/06 07:09:55;;;;;;;38.08;26.70;;;;;;;-1.06;77.57;102528.91;4992698;28;20463;-67
2022/03/06 07:12:21;;;;;;;36.60;25.55;;;;;;;-1.03;77.96;102533.19;4992393;28;20069;-67
2022/03/06 07:14:46;;;;;;;34.97;25.80;;;;;;;-1.02;78.02;102532.34;5003252;28;20449;-67
2022/03/06 07:17:11;;;;;;;36.97;25.65;;;;;;;-1.03;78.16;102528.03;4996848;28;20034;-68
2022/03/06 07:19:36;;;;;;;36.47;25.65;;;;;;;-0.99;78.29;102534.91;5010095;28;20053;-67
2022/03/06 07:22:02;;;;;;;38.75;25.73;;;;;;;-0.97;77.99;102534.06;4998412;28;20029;-68
2022/03/06 07:24:27;;;;;;;36.70;25.58;;;;;;;-0.96;78.35;102530.63;5009731;28;20084;-68
2022/03/06 07:26:53;;;;;;;35.42;25.13;;;;;;;-0.93;78.17;102536.66;4998834;28;20045;-67
2022/03/06 07:29:18;;;;;;;39.22;25.90;;;;;;;-0.91;78.26;102529.75;4998202;28;20050;-68
2022/03/06 07:31:43;;;;;;;39.25;25.42;;;;;;;-0.89;77.84;102534.06;5005367;28;20040;-68
2022/03/06 07:34:09;;;;;;;37.72;25.85;;;;;;;-0.85;78.33;102543.53;4997833;28;20019;-67
2022/03/06 07:36:34;;;;;;;36.70;25.40;;;;;;;-0.82;77.92;102546.13;4998164;28;20072;-68
2022/03/06 07:38:59;;;;;;;35.72;24.70;;;;;;;-0.78;78.30;102550.47;5000819;28;20737;-67
2022/03/06 07:41:25;;;;;;;36.38;25.65;;;;;;;-0.75;77.91;102553.03;5001942;28;20032;-68
2022/03/06 07:43:50;;;;;;;36.25;24.88;;;;;;;-0.70;78.19;102556.47;4989357;28;20026;-68
2022/03/06 07:46:16;;;;;;;35.03;26.00;;;;;;;-0.66;78.09;102558.19;4999947;28;20493;-67
2022/03/06 07:48:41;;;;;;;37.53;26.30;;;;;;;-0.61;78.32;102565.94;5004429;28;20059;-68
2022/03/06 07:51:06;;;;;;;40.25;26.05;;;;;;;-0.56;77.44;102568.53;5004220;28;20041;-68
2022/03/06 07:53:32;;;;;;;37.33;26.00;;;;;;;-0.52;77.40;102576.28;5005496;28;20030;-68
2022/03/06 07:55:57;;;;;;;36.00;25.05;;;;;;;-0.45;77.50;102571.97;5001042;28;20036;-68
2022/03/06 07:58:23;;;;;;;37.45;25.58;;;;;;;-0.39;77.66;102577.16;5005555;28;20058;-68
2022/03/06 08:00:48;;;;;;;35.60;24.83;;;;;;;-0.35;77.46;102579.72;4997557;28;20027;-67
2022/03/06 08:03:13;;;;;;;36.47;24.73;;;;;;;-0.30;77.36;102587.47;4999365;28;20792;-67
2022/03/06 08:05:39;;;;;;;38.97;24.80;;;;;;;-0.25;76.99;102585.75;5007450;28;20110;-68
2022/03/06 08:08:04;;;;;;;36.83;25.20;;;;;;;-0.21;76.53;102597.81;4997317;28;20033;-67
2022/03/06 08:10:30;;;;;;;34.50;24.45;;;;;;;-0.16;76.94;102590.91;4998323;28;20058;-68
2022/03/06 08:12:55;;;;;;;35.60;24.42;;;;;;;-0.10;76.67;102587.44;4997196;28;20179;-68
2022/03/06 08:15:20;;;;;;;34.90;23.98;;;;;;;-0.04;76.77;102590.88;5000782;28;20038;-68
2022/03/06 08:17:46;;;;;;;39.33;24.58;;;;;;;0.01;76.55;102587.44;5009547;28;20084;-69
2022/03/06 08:20:12;;;;;;;42.05;26.05;;;;;;;0.07;76.19;102597.78;4998323;28;20065;-69
2022/03/06 08:22:37;;;;;;;64.50;31.20;;;;;;;0.13;76.37;102597.75;4998196;28;20073;-68
2022/03/06 08:25:03;;;;;;;39.97;26.00;;;;;;;0.18;76.06;102593.41;4997848;28;20050;-69
2022/03/06 08:27:29;;;;;;;50.55;27.98;;;;;;;0.24;76.24;102596.84;4994352;28;20026;-68
2022/03/06 08:29:55;;;;;;;33.25;24.48;;;;;;;0.31;76.26;102602.88;5001522;28;20026;-68
2022/03/06 08:32:20;;;;;;;35.20;23.67;;;;;;;0.36;75.72;102598.53;4998628;28;20030;-68
2022/03/06 08:34:46;;;;;;;35.53;23.83;;;;;;;0.42;75.29;102597.66;4997795;28;20054;-67
2022/03/06 08:37:12;;;;;;;34.92;24.52;;;;;;;0.49;75.50;102609.72;4999719;28;20053;-67
2022/03/06 08:39:37;;;;;;;34.95;24.02;;;;;;;0.55;75.86;102601.94;5002324;28;20030;-67
2022/03/06 08:42:03;;;;;;;33.08;23.42;;;;;;;0.61;75.27;102618.28;4997136;28;20022;-67
2022/03/06 08:44:28;;;;;;;30.67;22.83;;;;;;;0.68;75.42;102619.13;4994007;28;20026;-67
2022/03/06 08:46:54;;;;;;;29.35;22.40;;;;;;;0.73;74.67;102614.78;4997637;28;20022;-69
2022/03/06 08:49:20;;;;;;;33.33;22.67;;;;;;;0.81;74.50;102617.34;4991944;28;20753;-67
2022/03/06 08:51:45;;;;;;;29.92;22.25;;;;;;;0.87;74.49;102615.59;4990759;28;20026;-67
2022/03/06 08:54:10;;;;;;;32.75;22.85;;;;;;;0.96;74.88;102622.44;4989211;28;20095;-68
2022/03/06 08:56:36;;;;;;;33.33;22.98;;;;;;;1.03;74.36;102616.34;4994070;28;20109;-69
2022/03/06 08:59:02;;;;;;;31.90;21.85;;;;;;;1.11;73.96;102616.31;5001231;28;20025;-69
2022/03/06 09:01:27;;;;;;;30.13;21.77;;;;;;;1.18;74.14;102618.84;4995281;28;20034;-69
2022/03/06 09:03:56;;;;;;;31.80;21.77;;;;;;;1.24;73.71;102621.41;4995850;28;20033;-69
2022/03/06 09:06:21;;;;;;;31.65;22.92;;;;;;;1.33;73.58;102619.63;4992000;28;20036;-69
2022/03/06 09:08:46;;;;;;;32.08;21.88;;;;;;;1.39;72.94;102619.56;4989199;28;20774;-69
2022/03/06 09:11:12;;;;;;;31.02;22.08;;;;;;;1.46;73.31;102621.25;4989787;28;20029;-69
2022/03/06 09:13:37;;;;;;;29.92;21.00;;;;;;;1.53;72.96;102628.09;4988906;28;20042;-69
2022/03/06 09:16:03;;;;;;;30.92;20.80;;;;;;;1.60;72.30;102632.38;4989747;28;20034;-69
2022/03/06 09:18:29;;;;;;;28.17;20.83;;;;;;;1.67;71.82;102631.47;4990667;28;20029;-69
2022/03/06 09:20:54;;;;;;;29.17;21.67;;;;;;;1.75;72.01;102623.59;4990100;28;20030;-69
2022/03/06 09:23:20;;;;;;;30.20;21.55;;;;;;;1.82;72.47;102620.94;4990037;28;20173;-67
2022/03/06 09:25:45;;;;;;;27.67;20.52;;;;;;;1.88;71.77;102623.47;4989884;28;20030;-67
2022/03/06 09:28:10;;;;;;;29.58;21.40;;;;;;;1.96;71.11;102619.94;4990248;28;20030;-67
2022/03/06 09:30:38;;;;;;;25.80;20.55;;;;;;;2.02;70.47;102615.56;4989411;28;20030;-67
2022/03/06 09:33:04;;;;;;;30.00;20.77;;;;;;;2.11;70.98;102617.22;4990818;28;20037;-69
2022/03/06 09:35:29;;;;;;;26.08;19.92;;;;;;;2.19;69.93;102615.38;4990024;28;20057;-69
2022/03/06 09:37:55;;;;;;;27.35;20.83;;;;;;;2.27;70.04;102613.56;4993689;28;20037;-70
2022/03/06 09:40:20;;;;;;;28.95;21.67;;;;;;;2.35;69.98;102613.47;5000934;28;20117;-69
2022/03/06 09:42:46;;;;;;;28.25;20.80;;;;;;;2.42;69.77;102613.41;5008770;28;20029;-69
2022/03/06 09:45:13;;;;;;;27.67;20.50;;;;;;;2.50;69.82;102618.50;4998232;28;20038;-67
2022/03/06 09:47:39;;;;;;;23.35;19.52;;;;;;;2.60;70.35;102616.66;4995319;28;20018;-67
2022/03/06 09:50:07;;;;;;;26.00;19.75;;;;;;;2.66;69.05;102606.19;4990182;28;20121;-66
2022/03/06 09:52:32;;;;;;;23.95;19.25;;;;;;;2.72;68.11;102608.69;4990274;28;20026;-67
2022/03/06 09:54:58;;;;;;;25.38;19.02;;;;;;;2.82;69.06;102607.72;4989517;28;20372;-67
2022/03/06 09:57:26;;;;;;;28.05;21.20;;;;;;;2.90;68.52;102605.84;4991613;28;20089;-68
2022/03/06 09:59:52;;;;;;;26.63;20.50;;;;;;;3.00;68.16;102612.66;4988357;28;20038;-67
2022/03/06 10:02:18;;;;;;;25.92;19.77;;;;;;;3.09;68.53;102607.31;4989354;28;20483;-72
2022/03/06 10:04:46;;;;;;;26.10;19.58;;;;;;;3.19;67.85;102607.16;4989837;28;20073;-67
2022/03/06 10:07:16;;;;;;;24.15;19.30;;;;;;;3.29;67.56;102608.75;4997255;28;20081;-68
2022/03/06 10:09:43;;;;;;;27.27;19.90;;;;;;;3.37;66.93;102602.56;4994537;28;20038;-68
2022/03/06 10:12:18;;;;;;;28.65;20.13;;;;;;;3.46;66.91;102606.75;4987979;28;20057;-68
2022/03/06 10:14:44;;;;;;;27.00;20.70;;;;;;;3.54;66.12;102610.06;4989986;28;20088;-68
2022/03/06 10:17:12;;;;;;;31.98;21.00;;;;;;;3.63;66.29;102616.91;4995463;28;20022;-68
2022/03/06 10:19:51;;;;;;;25.80;19.17;;;;;;;3.73;65.96;102611.50;4989261;28;20235;-68
2022/03/06 10:22:18;;;;;;;28.58;20.48;;;;;;;3.84;65.54;102610.44;4989303;28;20026;-68
2022/03/06 10:24:55;;;;;;;23.38;18.13;;;;;;;3.92;63.69;102611.16;4989491;28;20041;-68
2022/03/06 10:27:43;;;;;;;25.92;18.80;;;;;;;3.99;64.26;102612.75;4988923;28;20491;-68
2022/03/06 10:30:44;;;;;;;25.83;17.92;;;;;;;4.09;64.47;102614.34;4989200;28;20030;-68
2022/03/06 10:33:20;;;;;;;29.45;19.00;;;;;;;4.18;63.69;102608.09;4971835;28;20039;-68
2022/03/06 10:35:48;;;;;;;22.33;17.17;;;;;;;4.27;62.47;102610.50;4988933;28;20046;-68
2022/03/06 10:38:26;;;;;;;26.60;18.02;;;;;;;4.35;63.16;102612.06;4989609;28;20038;-68
2022/03/06 10:40:56;;;;;;;24.27;17.95;;;;;;;4.45;61.96;102622.34;4989079;28;20034;-68
2022/03/06 10:43:33;;;;;;;21.50;16.90;;;;;;;4.54;61.93;102622.16;4989911;28;20084;-67
2022/03/06 10:46:16;;;;;;;21.85;17.00;;;;;;;4.63;63.12;102621.94;4995358;28;20138;-68
2022/03/06 10:49:12;;;;;;;21.90;16.40;;;;;;;4.74;62.96;102622.59;4989149;28;20058;-68
2022/03/06 10:51:40;;;;;;;19.20;15.77;;;;;;;4.77;61.57;102614.69;4986799;28;20462;-67
2022/03/06 10:54:05;;;;;;;20.25;15.65;;;;;;;4.87;61.80;102615.38;4992663;28;20030;-68
2022/03/06 10:56:30;;;;;;;20.33;16.23;;;;;;;4.94;61.42;102615.19;4997907;28;20033;-68
2022/03/06 10:58:57;;;;;;;19.30;14.70;;;;;;;5.04;60.90;102608.88;4996169;28;20407;-68
2022/03/06 11:01:23;;;;;;;19.77;15.63;;;;;;;5.15;60.47;102610.38;5004319;28;20018;-68
2022/03/06 11:03:50;;;;;;;23.02;15.15;;;;;;;5.23;59.58;102613.69;5003839;28;20454;-67
2022/03/06 11:06:18;;;;;;;18.63;15.13;;;;;;;5.37;61.15;102611.59;4994393;28;20069;-68
2022/03/06 11:08:44;;;;;;;19.48;15.27;;;;;;;5.45;59.04;102614.88;4998376;28;20037;-68
2022/03/06 11:11:10;;;;;;;18.85;15.20;;;;;;;5.58;58.37;102602.38;4988413;28;20368;-68